»·PEaware :: N957LH KVNY-KPSP

N957LH :: KVNY-KPSP

FLIGHT INFORMATION

Flight Status: Arrived
Operator: Privately registered:
United States
More flights under this callsign
Pilot: James W. (17580)
Aircraft: CESSNA 182 SKYLANE
(C182)
More flights by this aircraft type
Origin: KVNY Van Nuys
United States
Destination: KPSP Palm Springs Intl
United States
More flights between these airports :: More routes between these airports
Route:
File this flight plan on PilotEdge
Remarks:
Altitude:
(Current/Filed)
5,500ft
Speed:
(Current/Filed)
0kts
Departed: 05-Feb-21 03:03 PM
Arrived: 05-Feb-21 03:53 PM
Distance/Time
Traveled:
101nm/0:50
Distance/Time
To Go:
Arrived

Flight Plot

Page will automatically refresh every two minutes.


Map Options




Map Legend


Flown Route
Filed Route
Departure Airport
Arrival Airport
Navaid (VOR, NDB)
Fix

Horizontal Profiles

Position Reports

Time Latitude Longitude Heading Altitude Ground
Speed
05-Feb-21 14:54 34.211249 -118.492095 14 787ft 0kts
05-Feb-21 14:55 34.211249 -118.492095 14 787ft 0kts
05-Feb-21 14:56 34.211249 -118.492095 14 787ft 0kts
05-Feb-21 14:57 34.211249 -118.492095 14 787ft 0kts
05-Feb-21 14:58 34.211249 -118.492095 14 787ft 0kts
05-Feb-21 14:58 34.214277 -118.491977 355 789ft 25kts
05-Feb-21 15:00 34.218684 -118.492164 56 803ft 0kts
05-Feb-21 15:01 34.218684 -118.492164 56 803ft 0kts
05-Feb-21 15:01 34.218684 -118.492164 56 803ft 0kts
05-Feb-21 15:02 34.216140 -118.490993 175 795ft 68kts
05-Feb-21 15:03 34.185218 -118.492082 184 1853ft 131kts
05-Feb-21 15:04 34.146329 -118.492210 175 2540ft 149kts
05-Feb-21 15:05 34.136785 -118.454726 77 3579ft 124kts
05-Feb-21 15:06 34.142871 -118.413460 76 4616ft 117kts
05-Feb-21 15:07 34.151542 -118.376483 73 5527ft 117kts
05-Feb-21 15:08 34.159061 -118.334447 78 5705ft 140kts
05-Feb-21 15:09 34.155773 -118.288333 110 5657ft 138kts
05-Feb-21 15:10 34.142179 -118.244328 105 5672ft 145kts
05-Feb-21 15:11 34.129576 -118.197989 105 5513ft 145kts
05-Feb-21 15:12 34.110144 -118.155723 120 5456ft 144kts
05-Feb-21 15:13 34.087135 -118.115932 121 5411ft 145kts
05-Feb-21 15:14 34.074627 -118.072236 94 5394ft 142kts
05-Feb-21 15:15 34.075390 -118.025234 82 5385ft 142kts
05-Feb-21 15:16 34.075357 -117.977650 93 5369ft 142kts
05-Feb-21 15:17 34.071673 -117.930444 93 5356ft 143kts
05-Feb-21 15:18 34.065222 -117.884359 86 5605ft 135kts
05-Feb-21 15:19 34.054103 -117.839713 109 5661ft 144kts
05-Feb-21 15:20 34.035263 -117.796567 120 5631ft 145kts
05-Feb-21 15:21 34.010026 -117.758716 132 5643ft 145kts
05-Feb-21 15:22 33.983527 -117.722292 121 5699ft 144kts
05-Feb-21 15:23 33.964257 -117.679994 108 5668ft 143kts
05-Feb-21 15:24 33.948169 -117.635647 111 5622ft 144kts
05-Feb-21 15:25 33.933333 -117.590642 109 5586ft 144kts
05-Feb-21 15:26 33.917958 -117.546821 111 5624ft 144kts
05-Feb-21 15:27 33.921259 -117.500271 84 5579ft 142kts
05-Feb-21 15:28 33.923221 -117.453050 83 5643ft 141kts
05-Feb-21 15:29 33.927385 -117.406324 82 5738ft 140kts
05-Feb-21 15:30 33.932705 -117.359716 82 5799ft 140kts
05-Feb-21 15:31 33.935760 -117.312282 83 5782ft 142kts
05-Feb-21 15:32 33.939269 -117.264519 83 5738ft 143kts
05-Feb-21 15:33 33.941824 -117.216724 84 5716ft 143kts
05-Feb-21 15:34 33.945547 -117.169177 81 5725ft 143kts
05-Feb-21 15:35 33.949263 -117.121308 85 5725ft 143kts
05-Feb-21 15:36 33.950472 -117.073268 81 5723ft 143kts
05-Feb-21 15:37 33.945539 -117.025962 98 5751ft 143kts
05-Feb-21 15:38 33.948059 -116.978668 78 5737ft 144kts
05-Feb-21 15:39 33.952883 -116.930999 84 5761ft 143kts
05-Feb-21 15:40 33.953516 -116.882660 91 5757ft 145kts
05-Feb-21 15:41 33.946557 -116.834788 97 5734ft 144kts
05-Feb-21 15:42 33.939949 -116.786730 95 5727ft 145kts
05-Feb-21 15:43 33.932127 -116.738874 103 5545ft 147kts
05-Feb-21 15:44 33.921475 -116.689761 102 4746ft 147kts
05-Feb-21 15:45 33.911515 -116.642449 102 3876ft 142kts
05-Feb-21 15:46 33.903200 -116.597168 101 3266ft 140kts
05-Feb-21 15:47 33.890648 -116.552670 120 2361ft 142kts
05-Feb-21 15:48 33.864994 -116.517558 139 1553ft 138kts
05-Feb-21 15:49 33.835828 -116.491439 140 1352ft 125kts
05-Feb-21 15:50 33.811389 -116.477015 231 875ft 98kts
05-Feb-21 15:51 33.824084 -116.499893 323 414ft 80kts
05-Feb-21 15:52 33.831781 -116.506007 54 438ft 0kts
05-Feb-21 15:53 33.832171 -116.504945 81 439ft 0kts
05-Feb-21 15:54 33.832171 -116.504945 81 439ft 0kts

Navigation Log

Ident Type
Flight plan parsing failed, navigation log unavailable